ポンタ・デルガダ の空港の天気 - METARとTAF

ポンタ・デルガダ空港 ( LPPD / PDL ) - ポルトガル ポンタ・デルガダ (サンミゲル島)
飛行場実況気象(Metar)
観測時間02/27 23:30 AZOT (02/28 00:30 UTC)
風向・風速北西 2m/s
視程10km以上
天気現象
少しの雲 雲底高度 490m
全天の8割程度の雲 雲底高度 1070m
気温14℃
湿度82%
気圧1026hPa
METARLPPD 280030Z 31004KT 280V350 9999 FEW016 BKN035 14/11 Q1026
過去の天気等 Google飛行場航空写真 Wunderground天気予報

過去48時間のMETAR

飛行場予報(TAF)
発表時間: 2/27 22:00 AZOT (2/27 23:00 UTC)
予報対象時間: 27日23時 AZOT ~ 28日23時 AZOT
風向・風速不定 3m/s
視程10km以上
全天の4割程度の雲 雲底高度 550m
全天の8割程度の雲 雲底高度 1,070m
27日23時 AZOT ~ 28日11時 AZOT に 確率 40% で一時的に
視程5,000m
天気現象弱い雨霧雨 もや
全天の4割程度の雲 雲底高度 180m
全天の8割程度の雲 雲底高度 370m
28日8時 AZOT ~ 28日11時 AZOT に徐々に
風向・風速西南西 5m/s
TAF LPPD 272300Z 2800/2824 VRB05KT 9999 SCT018 BKN035
PROB40 TEMPO 2800/2812 5000 -RADZ BR SCT006 BKN012
BECMG 2809/2812 24010KT